Time;durP1;ratioP1;P1;durP2;ratioP2;P2;SDS_P1;SDS_P2;PMS_P1;PMS_P2;Temp;Humidity;BMP_temperature;BMP_pressure;BME280_temperature;BME280_humidity;BME280_pressure;Samples;Min_cycle;Max_cycle;Signal;HPM_P1;HPM_P2
2022/08/15 00:01:35;;;;;;;12.43;11.33;;;22.10;1.00;;;;;;5092087;28;20423;-54
2022/08/15 00:04:01;;;;;;;12.43;11.23;;;22.20;1.00;;;;;;5092421;28;20822;-55
2022/08/15 00:06:34;;;;;;;12.77;11.47;;;22.10;1.00;;;;;;5092030;28;20428;-55
2022/08/15 00:09:02;;;;;;;11.30;10.40;;;22.10;1.00;;;;;;5091850;28;20429;-55
2022/08/15 00:11:36;;;;;;;12.90;11.80;;;22.00;1.00;;;;;;5091818;28;20436;-54
2022/08/15 00:14:10;;;;;;;12.73;11.63;;;22.00;1.00;;;;;;5092081;28;20420;-56
2022/08/15 00:16:38;;;;;;;12.20;11.20;;;22.00;1.00;;;;;;5073446;28;20430;-54
2022/08/15 00:19:08;;;;;;;12.67;11.43;;;22.00;1.00;;;;;;5091922;28;20436;-54
2022/08/15 00:21:43;;;;;;;13.23;11.93;;;21.90;1.00;;;;;;5091569;28;20435;-55
2022/08/15 00:24:10;;;;;;;13.40;12.20;;;21.90;1.00;;;;;;5073394;28;20452;-54
2022/08/15 00:26:36;;;;;;;13.20;11.90;;;21.90;1.00;;;;;;5091856;28;20524;-53
2022/08/15 00:29:03;;;;;;;13.07;11.90;;;21.90;1.00;;;;;;5091715;28;20802;-56
2022/08/15 00:31:31;;;;;;;15.50;12.13;;;21.90;1.00;;;;;;5091794;28;20445;-53
2022/08/15 00:33:58;;;;;;;13.43;12.23;;;21.80;1.00;;;;;;5090813;28;20448;-53
2022/08/15 00:36:39;;;;;;;12.93;11.83;;;21.80;1.00;;;;;;5090332;28;20502;-53
2022/08/15 00:39:06;;;;;;;13.60;12.40;;;21.80;1.00;;;;;;5038975;28;20463;-55
2022/08/15 00:41:42;;;;;;;13.00;11.90;;;21.80;1.00;;;;;;5048700;28;20436;-52
2022/08/15 00:44:13;;;;;;;13.07;11.97;;;21.70;1.00;;;;;;5051306;28;20440;-55
2022/08/15 00:46:45;;;;;;;15.10;12.50;;;21.70;1.00;;;;;;5051252;28;20464;-54
2022/08/15 00:49:12;;;;;;;13.53;12.23;;;21.60;1.00;;;;;;5050972;28;21020;-54
2022/08/15 00:51:57;;;;;;;13.67;12.47;;;21.60;1.00;;;;;;5051228;28;20435;-54
2022/08/15 00:54:32;;;;;;;13.83;12.40;;;21.60;1.00;;;;;;5050883;28;20438;-55
2022/08/15 00:57:23;;;;;;;12.80;11.70;;;21.70;1.00;;;;;;5050686;28;20461;-55
2022/08/15 01:00:08;;;;;;;13.33;12.23;;;21.60;1.00;;;;;;5050413;28;20867;-54
2022/08/15 01:02:36;;;;;;;13.30;12.00;;;21.60;1.00;;;;;;5049843;28;20442;-56
2022/08/15 01:05:07;;;;;;;14.17;12.70;;;21.60;1.00;;;;;;5034628;28;20443;-55
2022/08/15 01:07:32;;;;;;;14.40;13.03;;;21.60;1.00;;;;;;5046712;28;20443;-56
2022/08/15 01:09:58;;;;;;;12.73;11.63;;;21.50;1.00;;;;;;5050586;28;20410;-56
2022/08/15 01:12:26;;;;;;;13.30;12.00;;;21.50;1.00;;;;;;5050468;28;20180;-54
2022/08/15 01:14:57;;;;;;;13.90;12.73;;;21.50;1.00;;;;;;5050533;28;20491;-54
2022/08/15 01:17:26;;;;;;;13.60;12.40;;;21.40;1.00;;;;;;5050312;28;20498;-56
2022/08/15 01:20:07;;;;;;;13.23;12.13;;;21.40;1.00;;;;;;5050352;28;20440;-55
2022/08/15 01:22:41;;;;;;;14.27;12.87;;;21.40;1.00;;;;;;5038147;28;20470;-54
2022/08/15 01:25:15;;;;;;;13.30;12.20;;;21.40;1.00;;;;;;5049941;28;20449;-54
2022/08/15 01:27:56;;;;;;;14.37;12.90;;;21.50;1.00;;;;;;5050426;28;20434;-55
2022/08/15 01:30:27;;;;;;;13.00;11.70;;;21.50;1.00;;;;;;5050363;28;20928;-55
2022/08/15 01:32:56;;;;;;;16.93;13.40;;;21.40;1.00;;;;;;5042972;28;20542;-54
2022/08/15 01:35:22;;;;;;;14.53;13.33;;;21.50;1.00;;;;;;5030762;28;20797;-55
2022/08/15 01:37:51;;;;;;;12.80;11.70;;;21.40;1.00;;;;;;5057011;28;20468;-54
2022/08/15 01:40:38;;;;;;;14.57;13.17;;;21.40;1.00;;;;;;5090240;28;20274;-55
2022/08/15 01:43:07;;;;;;;13.80;12.43;;;21.40;1.00;;;;;;5090227;28;20427;-54
2022/08/15 01:45:35;;;;;;;15.23;13.00;;;21.30;1.00;;;;;;5089850;28;20497;-55
2022/08/15 01:48:17;;;;;;;13.67;12.37;;;21.40;1.00;;;;;;5089881;28;20445;-56
2022/08/15 01:50:49;;;;;;;14.20;13.00;;;21.40;1.00;;;;;;5088276;28;20467;-54
2022/08/15 01:53:27;;;;;;;13.80;12.37;;;21.40;1.00;;;;;;5090167;28;20448;-57
2022/08/15 01:56:03;;;;;;;14.80;13.40;;;21.30;1.00;;;;;;5090244;28;20467;-55
2022/08/15 01:58:29;;;;;;;15.33;13.83;;;21.30;1.00;;;;;;5089766;28;20460;-53
2022/08/15 02:01:03;;;;;;;15.20;13.80;;;21.20;1.00;;;;;;5089328;28;20533;-54
2022/08/15 02:03:35;;;;;;;14.67;13.27;;;22.40;1.00;;;;;;5089388;28;20198;-55
2022/08/15 02:06:25;;;;;;;14.40;13.00;;;21.20;1.00;;;;;;5090054;28;20440;-54
2022/08/15 02:08:52;;;;;;;14.80;13.40;;;21.20;1.00;;;;;;5077884;28;20449;-55
2022/08/15 02:11:22;;;;;;;15.13;13.60;;;21.10;1.00;;;;;;5088469;28;20535;-54
2022/08/15 02:13:54;;;;;;;13.17;12.07;;;21.00;1.00;;;;;;5089191;28;20432;-55
2022/08/15 02:16:27;;;;;;;14.93;13.43;;;20.90;1.00;;;;;;5089344;28;20562;-55
2022/08/15 02:18:53;;;;;;;14.63;13.13;;;21.00;1.00;;;;;;5089719;28;20440;-54
2022/08/15 02:21:19;;;;;;;14.50;13.20;;;21.00;1.00;;;;;;5089858;28;20448;-56
2022/08/15 02:23:45;;;;;;;14.27;12.97;;;20.90;1.00;;;;;;5089701;28;20455;-55
2022/08/15 02:26:23;;;;;;;13.87;12.67;;;20.90;1.00;;;;;;5089726;28;20449;-55
2022/08/15 02:28:49;;;;;;;15.47;13.90;;;20.90;1.00;;;;;;5089624;28;20190;-54
2022/08/15 02:31:27;;;;;;;14.70;13.20;;;20.80;1.00;;;;;;5089448;28;20952;-54
2022/08/15 02:33:56;;;;;;;13.80;12.60;;;20.80;1.00;;;;;;5089654;28;20439;-55
2022/08/15 02:36:23;;;;;;;13.63;12.13;;;20.80;1.00;;;;;;5089346;28;21058;-56
2022/08/15 02:38:49;;;;;;;14.67;13.17;;;20.80;1.00;;;;;;5089349;28;20468;-55
2022/08/15 02:41:41;;;;;;;14.90;13.60;;;20.70;1.00;;;;;;5089442;28;21411;-56
2022/08/15 02:44:07;;;;;;;14.30;12.67;;;20.70;1.00;;;;;;5089633;28;20990;-56
2022/08/15 02:46:36;;;;;;;15.23;13.70;;;20.60;1.00;;;;;;5089764;28;20943;-54
2022/08/15 02:49:04;;;;;;;15.13;13.83;;;20.70;1.00;;;;;;5088816;28;20513;-55
2022/08/15 02:51:30;;;;;;;14.20;12.80;;;20.60;1.00;;;;;;5089135;28;20441;-55
2022/08/15 02:53:56;;;;;;;14.80;13.40;;;20.60;1.00;;;;;;5070572;28;20449;-55
2022/08/15 02:56:27;;;;;;;14.80;13.50;;;20.70;1.00;;;;;;5089394;28;20537;-55
2022/08/15 02:58:53;;;;;;;15.00;13.50;;;20.70;1.00;;;;;;5090719;28;20655;-54
2022/08/15 03:01:23;;;;;;;13.97;12.60;;;20.70;1.00;;;;;;5093376;28;20460;-55
2022/08/15 03:03:51;;;;;;;14.60;12.10;;;20.70;1.00;;;;;;5093000;28;20441;-55
2022/08/15 03:06:26;;;;;;;15.27;13.97;;;20.60;1.00;;;;;;5091755;28;20541;-56
2022/08/15 03:08:58;;;;;;;15.30;13.80;;;20.50;1.00;;;;;;5092826;28;20902;-57
2022/08/15 03:11:25;;;;;;;15.80;13.13;;;20.60;1.00;;;;;;5092916;28;20500;-54
2022/08/15 03:13:51;;;;;;;15.17;13.73;;;20.60;1.00;;;;;;5092759;28;20476;-53
2022/08/15 03:16:23;;;;;;;14.00;12.70;;;20.60;1.00;;;;;;5093022;28;20946;-55
2022/08/15 03:18:49;;;;;;;15.80;14.20;;;20.50;1.00;;;;;;5092926;28;20464;-56
2022/08/15 03:21:24;;;;;;;15.60;14.00;;;20.40;1.00;;;;;;5092723;28;20495;-58
2022/08/15 03:23:49;;;;;;;14.30;13.00;;;20.40;1.00;;;;;;5092558;28;20436;-56
2022/08/15 03:26:25;;;;;;;15.20;13.60;;;20.40;1.00;;;;;;5092672;28;20432;-55
2022/08/15 03:28:51;;;;;;;15.70;13.87;;;20.30;1.00;;;;;;5092856;28;20474;-54
2022/08/15 03:31:26;;;;;;;14.30;13.03;;;20.30;1.00;;;;;;5092454;28;20467;-55
2022/08/15 03:33:52;;;;;;;15.20;13.67;;;20.30;1.00;;;;;;5091411;28;20436;-54
2022/08/15 03:36:25;;;;;;;16.50;13.87;;;20.30;1.00;;;;;;5092378;28;20584;-55
2022/08/15 03:38:51;;;;;;;14.77;13.40;;;20.30;1.00;;;;;;5089858;28;20246;-56
2022/08/15 03:41:24;;;;;;;15.53;13.93;;;20.30;1.00;;;;;;5074482;28;20969;-54
2022/08/15 03:43:50;;;;;;;14.57;13.27;;;20.30;1.00;;;;;;5092209;28;20452;-53
2022/08/15 03:46:27;;;;;;;15.07;13.60;;;20.30;1.00;;;;;;5091455;28;20423;-55
2022/08/15 03:48:56;;;;;;;16.37;14.87;;;20.40;1.00;;;;;;5092488;28;20282;-55
2022/08/15 03:51:26;;;;;;;14.90;13.57;;;20.30;1.00;;;;;;5092199;28;20539;-55
2022/08/15 03:53:58;;;;;;;16.23;14.73;;;20.30;1.00;;;;;;5091994;28;20441;-53
2022/08/15 03:56:34;;;;;;;16.43;14.73;;;20.30;1.00;;;;;;5091178;28;20466;-55
2022/08/15 03:59:00;;;;;;;15.73;14.13;;;20.30;1.00;;;;;;5092010;28;20440;-56
2022/08/15 04:01:29;;;;;;;15.17;13.77;;;20.30;1.00;;;;;;5091842;28;20498;-55
2022/08/15 04:03:55;;;;;;;15.80;14.40;;;20.20;1.00;;;;;;5091721;28;20444;-54
2022/08/15 04:06:30;;;;;;;15.27;13.80;;;20.20;1.00;;;;;;5091860;28;20442;-54
2022/08/15 04:08:57;;;;;;;16.37;14.77;;;20.20;1.00;;;;;;5091641;28;20407;-53
2022/08/15 04:11:29;;;;;;;14.67;13.17;;;20.20;1.00;;;;;;5091638;28;20424;-57
2022/08/15 04:13:55;;;;;;;15.83;13.40;;;20.20;1.00;;;;;;5091511;28;20436;-55
2022/08/15 04:16:21;;;;;;;17.07;13.90;;;20.30;1.00;;;;;;5091680;28;20443;-56
2022/08/15 04:18:47;;;;;;;15.87;13.93;;;20.30;1.00;;;;;;5092192;28;20183;-54
2022/08/15 04:21:32;;;;;;;14.07;12.77;;;20.30;1.00;;;;;;5091283;28;21009;-54
2022/08/15 04:23:57;;;;;;;15.20;13.70;;;20.30;1.00;;;;;;5091315;28;20186;-56
2022/08/15 04:26:29;;;;;;;15.07;13.23;;;20.30;1.00;;;;;;5091908;28;20514;-55
2022/08/15 04:28:55;;;;;;;14.90;13.60;;;20.30;1.00;;;;;;5091639;28;20182;-55
2022/08/15 04:31:25;;;;;;;17.37;13.97;;;20.40;1.00;;;;;;5091384;28;20471;-55
2022/08/15 04:33:50;;;;;;;15.00;13.63;;;20.40;1.00;;;;;;5091455;28;20183;-56
2022/08/15 04:36:25;;;;;;;15.47;14.20;;;20.50;1.00;;;;;;5091406;28;20530;-56
2022/08/15 04:38:53;;;;;;;15.90;14.03;;;20.60;1.00;;;;;;5091367;28;20411;-56
2022/08/15 04:41:19;;;;;;;15.23;13.67;;;20.60;1.00;;;;;;5073813;28;20407;-55
2022/08/15 04:43:44;;;;;;;15.20;13.90;;;20.50;1.00;;;;;;5090890;28;21008;-56
2022/08/15 04:46:10;;;;;;;17.20;15.27;;;20.60;1.00;;;;;;5090814;28;20429;-54
2022/08/15 04:48:36;;;;;;;14.90;13.40;;;20.60;1.00;;;;;;5091193;28;20315;-55
2022/08/15 04:51:04;;;;;;;16.47;14.97;;;20.90;1.00;;;;;;5090301;28;20640;-55
2022/08/15 04:53:33;;;;;;;15.27;13.77;;;20.90;1.00;;;;;;5091312;28;20533;-54
2022/08/15 04:56:01;;;;;;;15.60;14.00;;;20.80;1.00;;;;;;5091076;28;20773;-55
2022/08/15 04:58:28;;;;;;;15.83;14.20;;;20.90;1.00;;;;;;5090858;28;20436;-55
2022/08/15 05:01:02;;;;;;;15.30;13.90;;;20.90;1.00;;;;;;5090487;28;20429;-54
2022/08/15 05:03:28;;;;;;;16.00;14.60;;;21.10;1.00;;;;;;5087359;28;20458;-54
2022/08/15 05:05:56;;;;;;;17.03;15.53;;;21.20;1.00;;;;;;5087863;28;20556;-56
2022/08/15 05:08:27;;;;;;;14.87;13.47;;;21.20;1.00;;;;;;5090786;28;20730;-55
2022/08/15 05:10:59;;;;;;;15.10;13.70;;;21.30;1.00;;;;;;5090187;28;20441;-56
2022/08/15 05:13:28;;;;;;;16.17;14.53;;;21.40;1.00;;;;;;5090688;28;20418;-55
2022/08/15 05:15:54;;;;;;;15.37;13.93;;;21.40;1.00;;;;;;5086628;28;20826;-54
2022/08/15 05:18:22;;;;;;;16.70;15.27;;;21.40;1.00;;;;;;5090660;28;20429;-55
2022/08/15 05:20:48;;;;;;;17.17;15.53;;;21.60;1.00;;;;;;5089457;28;20768;-55
2022/08/15 05:23:17;;;;;;;15.57;14.13;;;21.70;1.00;;;;;;5089887;28;20486;-55
2022/08/15 05:25:46;;;;;;;15.50;13.90;;;21.80;1.00;;;;;;5087003;28;20632;-55
2022/08/15 05:28:13;;;;;;;16.17;14.67;;;21.90;1.00;;;;;;5090503;28;20444;-53
2022/08/15 05:30:38;;;;;;;15.70;14.20;;;22.00;1.00;;;;;;5089096;28;20601;-57
2022/08/15 05:33:05;;;;;;;13.73;12.43;;;22.30;1.00;;;;;;5089700;28;20536;-54
2022/08/15 05:35:32;;;;;;;15.03;13.73;;;22.40;1.00;;;;;;5089603;28;20187;-56
2022/08/15 05:38:01;;;;;;;14.87;13.37;;;22.60;1.00;;;;;;5089053;28;20464;-55
2022/08/15 05:40:30;;;;;;;14.60;13.10;;;22.70;1.00;;;;;;5089548;28;20782;-55
2022/08/15 05:43:09;;;;;;;18.87;14.57;;;22.80;1.00;;;;;;5089875;28;20527;-56
2022/08/15 05:45:46;;;;;;;15.23;13.63;;;22.80;1.00;;;;;;5090277;28;20759;-53
2022/08/15 05:48:16;;;;;;;15.27;13.77;;;22.80;1.00;;;;;;5089737;28;20535;-53
2022/08/15 05:51:01;;;;;;;15.33;13.80;;;22.90;1.00;;;;;;5088832;28;20449;-55
2022/08/15 05:53:39;;;;;;;14.90;13.60;;;23.00;1.00;;;;;;5090056;28;20532;-55
2022/08/15 05:56:43;;;;;;;16.80;14.97;;;23.00;1.00;;;;;;5089797;28;20988;-54
2022/08/15 05:59:13;;;;;;;13.20;12.07;;;23.00;1.00;;;;;;5089286;28;20472;-55
2022/08/15 06:01:44;;;;;;;14.17;12.77;;;23.00;1.00;;;;;;5090192;28;20552;-53
2022/08/15 06:04:42;;;;;;;13.90;12.60;;;23.00;1.00;;;;;;5089825;28;20520;-54
2022/08/15 06:07:15;;;;;;;14.70;13.20;;;23.10;1.00;;;;;;5089166;28;20945;-55
2022/08/15 06:10:05;;;;;;;14.27;12.93;;;23.30;1.00;;;;;;5089631;28;20525;-56
2022/08/15 06:12:41;;;;;;;14.10;12.80;;;23.20;1.00;;;;;;5089089;28;20436;-53
2022/08/15 06:15:18;;;;;;;14.00;12.80;;;23.40;1.00;;;;;;5089825;28;20448;-55
2022/08/15 06:17:49;;;;;;;13.50;12.20;;;23.50;1.00;;;;;;5089381;28;20411;-54
2022/08/15 06:20:21;;;;;;;14.23;12.90;;;23.60;1.00;;;;;;5089796;28;20440;-55
2022/08/15 06:23:05;;;;;;;14.67;13.20;;;23.70;1.00;;;;;;5089617;28;20523;-54
2022/08/15 06:26:06;;;;;;;15.03;13.53;;;23.70;1.00;;;;;;5089518;28;20774;-56
2022/08/15 06:28:48;;;;;;;16.10;12.70;;;23.80;1.00;;;;;;5048344;28;20524;-54
2022/08/15 06:31:31;;;;;;;14.80;13.40;;;23.90;1.00;;;;;;5089389;28;20428;-55
2022/08/15 06:34:25;;;;;;;14.70;13.37;;;24.00;1.00;;;;;;5090232;28;20429;-55
2022/08/15 06:37:06;;;;;;;14.17;12.77;;;24.00;1.00;;;;;;5092461;28;20489;-55
2022/08/15 06:40:00;;;;;;;13.43;12.13;;;24.20;1.00;;;;;;5093265;28;20455;-54
2022/08/15 06:42:36;;;;;;;12.87;11.53;;;24.20;1.00;;;;;;5093348;28;20447;-56
2022/08/15 06:45:22;;;;;;;13.70;12.30;;;24.30;1.00;;;;;;5093047;28;20429;-57
2022/08/15 06:47:51;;;;;;;12.93;11.60;;;24.70;1.00;;;;;;5093529;28;20403;-56
2022/08/15 06:50:32;;;;;;;13.27;11.70;;;25.20;1.00;;;;;;5093391;28;20492;-54
2022/08/15 06:53:13;;;;;;;13.73;12.23;;;25.50;1.00;;;;;;5093475;28;20924;-54
2022/08/15 06:55:57;;;;;;;12.77;11.57;;;25.70;1.00;;;;;;5093068;28;21076;-55
2022/08/15 06:58:38;;;;;;;13.10;11.70;;;25.90;1.00;;;;;;5093449;28;20969;-56
2022/08/15 07:01:39;;;;;;;13.43;11.83;;;25.90;1.00;;;;;;5093306;28;20428;-55
2022/08/15 07:04:26;;;;;;;12.50;11.30;;;25.90;1.00;;;;;;5093140;28;20459;-55
2022/08/15 07:07:14;;;;;;;13.57;12.23;;;26.40;1.00;;;;;;5093212;28;20428;-55
2022/08/15 07:09:53;;;;;;;13.90;12.50;;;26.40;1.00;;;;;;5092431;28;20433;-54
2022/08/15 07:12:45;;;;;;;12.53;11.37;;;26.60;1.00;;;;;;5092655;28;21296;-54
2022/08/15 07:15:23;;;;;;;14.63;11.93;;;26.60;1.00;;;;;;5092860;28;20942;-55
2022/08/15 07:18:04;;;;;;;12.90;11.60;;;26.50;1.00;;;;;;5092771;28;20937;-55
2022/08/15 07:20:30;;;;;;;12.17;11.10;;;26.50;1.00;;;;;;5093098;28;20422;-55
2022/08/15 07:22:55;;;;;;;14.17;12.77;;;26.60;1.00;;;;;;5092990;28;20428;-55
2022/08/15 07:25:28;;;;;;;13.60;11.50;;;26.70;1.00;;;;;;5092375;28;20201;-56
2022/08/15 07:28:02;;;;;;;12.17;10.93;;;26.90;1.00;;;;;;5092783;28;20271;-54
2022/08/15 07:30:47;;;;;;;13.60;11.67;;;27.00;1.00;;;;;;5092691;28;20407;-55
2022/08/15 07:33:36;;;;;;;12.70;11.47;;;27.20;1.00;;;;;;5092612;28;20436;-57
2022/08/15 07:36:26;;;;;;;11.93;10.83;;;27.30;1.00;;;;;;5092553;28;20473;-55
2022/08/15 07:38:54;;;;;;;12.10;11.10;;;27.20;1.00;;;;;;5090214;28;20475;-56
2022/08/15 07:41:33;;;;;;;12.50;11.43;;;26.80;1.00;;;;;;5090957;28;20442;-56
2022/08/15 07:44:18;;;;;;;12.37;11.37;;;27.20;1.00;;;;;;5090887;28;20417;-55
2022/08/15 07:46:56;;;;;;;12.53;11.33;;;27.40;1.00;;;;;;5090883;28;20411;-56
2022/08/15 07:49:28;;;;;;;10.93;9.93;;;27.70;1.00;;;;;;5090668;28;20441;-55
2022/08/15 07:52:04;;;;;;;12.57;11.10;;;27.80;1.00;;;;;;5090983;28;20559;-54
2022/08/15 07:54:43;;;;;;;12.13;11.13;;;27.70;1.00;;;;;;5072582;28;20436;-54
2022/08/15 07:57:19;;;;;;;12.90;11.27;;;27.70;1.00;;;;;;5088421;28;20431;-55
2022/08/15 08:00:08;;;;;;;11.07;10.17;;;27.80;1.00;;;;;;5090778;28;20855;-54
2022/08/15 08:02:40;;;;;;;11.43;10.33;;;27.90;1.00;;;;;;5090595;28;20407;-53
2022/08/15 08:05:06;;;;;;;12.47;11.23;;;28.00;1.00;;;;;;5090701;28;20749;-56
2022/08/15 08:07:40;;;;;;;12.00;10.90;;;28.10;1.00;;;;;;5089859;28;20456;-55
2022/08/15 08:10:15;;;;;;;12.60;11.47;;;28.10;1.00;;;;;;5090831;28;20437;-54
2022/08/15 08:13:05;;;;;;;11.13;10.20;;;28.10;1.00;;;;;;5090787;28;20450;-58
2022/08/15 08:15:44;;;;;;;11.90;10.80;;;28.30;1.00;;;;;;5090652;28;20454;-53
2022/08/15 08:18:37;;;;;;;11.03;10.03;;;28.60;1.00;;;;;;5090292;28;20460;-54
2022/08/15 08:21:06;;;;;;;11.30;10.30;;;28.80;1.00;;;;;;5090760;28;20430;-54
2022/08/15 08:23:38;;;;;;;11.63;10.70;;;29.30;1.00;;;;;;5088701;28;20472;-56
2022/08/15 08:26:22;;;;;;;11.27;10.30;;;29.60;1.00;;;;;;5090127;28;20437;-54
2022/08/15 08:29:19;;;;;;;12.83;11.83;;;29.70;1.00;;;;;;5090475;28;20484;-55
2022/08/15 08:31:45;;;;;;;10.90;9.90;;;29.70;1.00;;;;;;5089727;28;20448;-54
2022/08/15 08:34:32;;;;;;;11.97;10.97;;;29.80;1.00;;;;;;5089721;28;21002;-56
2022/08/15 08:37:28;;;;;;;11.93;11.03;;;29.90;1.00;;;;;;5050591;28;1079416;-55
2022/08/15 08:43:28;;;;;;;10.70;9.77;;;29.60;1.00;;;;;;5045871;28;20396;-54
2022/08/15 08:46:00;;;;;;;10.70;9.60;;;30.00;1.00;;;;;;5039459;28;20456;-55
2022/08/15 08:48:40;;;;;;;10.90;10.03;;;30.50;1.00;;;;;;5090544;28;20445;-57
2022/08/15 08:51:34;;;;;;;10.60;9.80;;;31.00;1.00;;;;;;5090424;28;20836;-56
2022/08/15 08:54:08;;;;;;;11.20;10.30;;;31.20;1.00;;;;;;5092745;28;20416;-56
2022/08/15 08:56:45;;;;;;;10.17;9.37;;;31.30;1.00;;;;;;5090244;28;20937;-54
2022/08/15 08:59:22;;;;;;;10.70;9.77;;;30.90;1.00;;;;;;5091070;28;20448;-54
2022/08/15 09:01:52;;;;;;;11.20;10.20;;;30.60;1.00;;;;;;5090517;28;20434;-55
2022/08/15 09:04:22;;;;;;;10.17;9.20;;;30.60;1.00;;;;;;5090714;28;20936;-54
2022/08/15 09:06:51;;;;;;;11.17;10.20;;;31.00;1.00;;;;;;5089984;28;20399;-55
2022/08/15 09:09:19;;;;;;;10.03;9.23;;;31.60;1.00;;;;;;5090600;28;21016;-55
2022/08/15 09:11:55;;;;;;;10.30;9.40;;;31.70;1.00;;;;;;5090422;28;20848;-56
2022/08/15 09:14:33;;;;;;;10.57;9.77;;;31.70;1.00;;;;;;5091054;28;20403;-53
2022/08/15 09:17:08;;;;;;;10.30;9.30;;;32.00;1.00;;;;;;5090141;28;20476;-54
2022/08/15 09:19:49;;;;;;;9.90;9.10;;;31.90;1.00;;;;;;5090167;28;20790;-54
2022/08/15 09:22:14;;;;;;;10.43;9.50;;;31.70;1.00;;;;;;5069715;28;20513;-55
2022/08/15 09:24:41;;;;;;;11.47;10.47;;;31.50;1.00;;;;;;5089910;28;21341;-54
2022/08/15 09:27:34;;;;;;;10.97;10.07;;;31.60;1.00;;;;;;5090470;28;20312;-54
2022/08/15 09:30:09;;;;;;;11.17;10.20;;;31.30;1.00;;;;;;5090334;28;20433;-55
2022/08/15 09:32:41;;;;;;;10.83;9.83;;;31.00;1.00;;;;;;5090427;28;20441;-55
2022/08/15 09:35:07;;;;;;;10.50;9.57;;;;;;;;;;5090520;28;20415;-55
2022/08/15 09:37:51;;;;;;;10.47;9.67;;;30.50;1.00;;;;;;5090257;28;20793;-55
2022/08/15 09:40:28;;;;;;;10.50;9.70;;;30.70;1.00;;;;;;5090330;28;20440;-56
2022/08/15 09:43:13;;;;;;;11.33;10.33;;;30.70;1.00;;;;;;5090026;28;20436;-54
2022/08/15 09:46:00;;;;;;;12.97;10.37;;;30.80;1.00;;;;;;5090177;28;20408;-55
2022/08/15 09:48:56;;;;;;;11.00;10.00;;;30.80;1.00;;;;;;5090056;28;20498;-55
2022/08/15 09:52:01;;;;;;;11.40;10.40;;;30.70;1.00;;;;;;5089973;28;20419;-55
2022/08/15 09:54:29;;;;;;;12.17;10.97;;;31.00;1.00;;;;;;5089145;28;20494;-54
2022/08/15 09:57:29;;;;;;;10.83;9.93;;;31.20;1.00;;;;;;5089336;28;20944;-55
2022/08/15 10:00:01;;;;;;;11.33;10.30;;;31.40;1.00;;;;;;5089393;28;20434;-54
2022/08/15 10:02:32;;;;;;;11.03;9.93;;;31.50;1.00;;;;;;5089790;28;20404;-56
2022/08/15 10:04:57;;;;;;;9.93;9.13;;;31.70;1.00;;;;;;5090109;28;20498;-54
2022/08/15 10:07:47;;;;;;;11.10;10.20;;;32.00;1.00;;;;;;5089712;28;20500;-55
2022/08/15 10:10:51;;;;;;;10.93;9.80;;;32.30;1.00;;;;;;5089497;28;20190;-55
2022/08/15 10:13:29;;;;;;;10.20;9.40;;;32.70;1.00;;;;;;5085562;28;20452;-55
2022/08/15 10:15:56;;;;;;;10.13;9.17;;;33.10;1.00;;;;;;5089362;28;20472;-55
2022/08/15 10:18:27;;;;;;;9.83;9.10;;;33.20;1.00;;;;;;5089481;28;20500;-55
2022/08/15 10:20:55;;;;;;;10.23;9.43;;;33.00;99.90;;;;;;5089123;28;20403;-55
2022/08/15 10:23:31;;;;;;;12.47;10.07;;;32.50;1.00;;;;;;5088825;28;20786;-55
2022/08/15 10:26:32;;;;;;;10.80;9.73;;;32.30;1.00;;;;;;5089380;28;20441;-54
2022/08/15 10:29:08;;;;;;;10.30;9.40;;;32.00;1.00;;;;;;5089475;28;20428;-55
2022/08/15 10:31:40;;;;;;;11.00;10.00;;;31.80;1.00;;;;;;5089810;28;20407;-55
2022/08/15 10:34:17;;;;;;;10.80;9.70;;;31.60;1.00;;;;;;5087436;28;20449;-55
2022/08/15 10:37:09;;;;;;;10.37;9.50;;;31.50;1.00;;;;;;5089139;28;20467;-54
2022/08/15 10:39:47;;;;;;;9.90;9.00;;;31.60;1.00;;;;;;5089444;28;20487;-56
2022/08/15 10:42:37;;;;;;;10.40;9.47;;;31.80;1.00;;;;;;5089154;28;20430;-55
2022/08/15 10:45:15;;;;;;;9.77;8.77;;;32.20;1.00;;;;;;5089341;28;20474;-55
2022/08/15 10:48:07;;;;;;;10.67;9.60;;;32.40;1.00;;;;;;5089586;28;20839;-55
2022/08/15 10:50:52;;;;;;;10.40;9.40;;;32.40;99.90;;;;;;5075135;28;20437;-54
2022/08/15 10:53:50;;;;;;;10.37;9.43;;;32.50;1.00;;;;;;5089403;28;20428;-53
2022/08/15 10:56:21;;;;;;;10.47;9.57;;;32.50;1.00;;;;;;5089532;28;20963;-54
2022/08/15 10:58:49;;;;;;;9.00;8.20;;;32.60;1.00;;;;;;5089568;28;20770;-56
2022/08/15 11:01:26;;;;;;;10.30;9.30;;;32.70;99.90;;;;;;5089368;28;20478;-55
2022/08/15 11:04:09;;;;;;;9.37;8.30;;;32.80;1.00;;;;;;5089294;28;20465;-54
2022/08/15 11:06:42;;;;;;;10.70;8.83;;;32.90;99.90;;;;;;5088984;28;20792;-54
2022/08/15 11:09:13;;;;;;;9.20;8.33;;;33.00;99.90;;;;;;5089266;28;20423;-55
2022/08/15 11:11:43;;;;;;;9.93;8.90;;;33.40;99.90;;;;;;5089091;28;20416;-56
2022/08/15 11:14:19;;;;;;;10.20;9.17;;;33.30;99.90;;;;;;5089304;28;20502;-55
2022/08/15 11:16:51;;;;;;;10.13;9.27;;;32.80;99.90;;;;;;5089100;28;20900;-56
2022/08/15 11:19:26;;;;;;;10.43;9.40;;;32.40;99.90;;;;;;5089444;28;20415;-54
2022/08/15 11:21:55;;;;;;;9.47;8.57;;;32.00;1.00;;;;;;5092435;28;20842;-54
2022/08/15 11:24:41;;;;;;;10.60;9.03;;;31.40;1.00;;;;;;5092984;28;20407;-55
2022/08/15 11:27:15;;;;;;;10.37;9.10;;;31.10;1.00;;;;;;5074653;28;20467;-56
2022/08/15 11:29:41;;;;;;;11.13;10.23;;;31.10;1.00;;;;;;5092381;28;20445;-55
2022/08/15 11:32:07;;;;;;;10.13;9.33;;;31.20;1.00;;;;;;5092750;28;20856;-56
2022/08/15 11:34:38;;;;;;;10.67;9.70;;;31.30;1.00;;;;;;5092995;28;20525;-54
2022/08/15 11:37:30;;;;;;;10.83;9.60;;;31.30;1.00;;;;;;5092643;28;20509;-54
2022/08/15 11:39:58;;;;;;;10.00;9.00;;;31.20;1.00;;;;;;5092289;28;20408;-55
2022/08/15 11:42:27;;;;;;;11.40;10.30;;;31.00;1.00;;;;;;5092702;28;20816;-55
2022/08/15 11:44:56;;;;;;;11.23;9.70;;;30.70;1.00;;;;;;5092173;28;20433;-55
2022/08/15 11:47:23;;;;;;;9.87;9.03;;;30.70;1.00;;;;;;5092628;28;20901;-54
2022/08/15 11:49:53;;;;;;;9.33;8.33;;;30.30;1.00;;;;;;5092382;28;20919;-56
2022/08/15 11:52:25;;;;;;;9.57;8.87;;;30.30;1.00;;;;;;5091581;28;20524;-55
2022/08/15 11:55:26;;;;;;;10.10;9.30;;;30.10;1.00;;;;;;5091977;28;20439;-54
2022/08/15 11:57:55;;;;;;;10.03;9.23;;;30.00;1.00;;;;;;5091683;28;20947;-56
2022/08/15 12:00:41;;;;;;;10.10;9.23;;;30.10;1.00;;;;;;5091856;28;20498;-56
2022/08/15 12:03:27;;;;;;;10.10;9.30;;;29.90;1.00;;;;;;5088429;28;20472;-56
2022/08/15 12:05:56;;;;;;;9.00;7.97;;;29.80;1.00;;;;;;5091012;28;20415;-54
2022/08/15 12:08:33;;;;;;;9.70;8.77;;;29.60;1.00;;;;;;5091634;28;21001;-55
2022/08/15 12:11:24;;;;;;;10.00;9.10;;;29.50;1.00;;;;;;5092019;28;20490;-55
2022/08/15 12:13:58;;;;;;;9.70;8.90;;;29.30;1.00;;;;;;5091027;28;20569;-56
2022/08/15 12:16:34;;;;;;;10.43;9.30;;;29.20;1.00;;;;;;5090997;28;20972;-54
2022/08/15 12:19:34;;;;;;;10.43;9.50;;;29.00;1.00;;;;;;5091857;28;20407;-57
2022/08/15 12:22:13;;;;;;;10.73;9.83;;;28.90;1.00;;;;;;5091914;28;20461;-55
2022/08/15 12:24:41;;;;;;;11.17;10.07;;;28.80;1.00;;;;;;5091874;28;20949;-57
2022/08/15 12:27:07;;;;;;;9.47;8.57;;;28.70;1.00;;;;;;5091898;28;20415;-54
2022/08/15 12:29:34;;;;;;;11.43;9.67;;;28.60;1.00;;;;;;5091835;28;21004;-55
2022/08/15 12:32:07;;;;;;;10.97;9.43;;;28.70;1.00;;;;;;5090742;28;20675;-55
2022/08/15 12:34:45;;;;;;;11.03;9.13;;;28.70;1.00;;;;;;5091517;28;20502;-55
2022/08/15 12:37:24;;;;;;;9.30;8.50;;;28.70;1.00;;;;;;5090839;28;20451;-56
2022/08/15 12:39:53;;;;;;;9.47;8.77;;;28.80;1.00;;;;;;5091476;28;20415;-57
2022/08/15 12:42:24;;;;;;;8.03;7.43;;;28.80;1.00;;;;;;5091197;28;20415;-55
2022/08/15 12:44:53;;;;;;;9.60;7.30;;;28.60;1.00;;;;;;5091498;28;20410;-56
2022/08/15 12:47:28;;;;;;;11.30;7.77;;;28.60;1.00;;;;;;5090482;28;20419;-55
2022/08/15 12:49:55;;;;;;;10.63;8.03;;;28.50;1.00;;;;;;5091000;28;20426;-56
2022/08/15 12:52:21;;;;;;;8.43;6.73;;;28.70;1.00;;;;;;5091035;28;20926;-55
2022/08/15 12:54:48;;;;;;;8.77;7.40;;;28.90;1.00;;;;;;5091036;28;21063;-56
2022/08/15 12:57:14;;;;;;;9.73;7.53;;;28.90;1.00;;;;;;5090708;28;20973;-55
2022/08/15 12:59:40;;;;;;;8.70;7.90;;;29.00;1.00;;;;;;5090982;28;20539;-57
2022/08/15 13:02:07;;;;;;;8.67;7.87;;;29.30;1.00;;;;;;5072568;28;20535;-55
2022/08/15 13:04:32;;;;;;;8.27;7.47;;;29.50;1.00;;;;;;5090631;28;21697;-56
2022/08/15 13:07:31;;;;;;;8.03;7.20;;;29.50;1.00;;;;;;5090815;28;20523;-54
2022/08/15 13:09:56;;;;;;;7.77;7.07;;;29.40;1.00;;;;;;5035129;28;20253;-54
2022/08/15 13:12:22;;;;;;;7.87;7.10;;;29.60;1.00;;;;;;5090982;28;20444;-55
2022/08/15 13:14:47;;;;;;;7.87;7.10;;;29.80;1.00;;;;;;5090101;28;20175;-54
2022/08/15 13:17:14;;;;;;;8.17;7.40;;;30.00;1.00;;;;;;5090029;28;20210;-55
2022/08/15 13:25:20;;;;;;;12.83;7.67;;;30.40;1.00;;;;;;5090691;28;20445;-55
2022/08/15 13:27:50;;;;;;;7.60;6.80;;;30.50;1.00;;;;;;5089957;28;20421;-55